Gorzow Wielkopolski, Poland
Current Conditions -  °F | °C
As of 6:00 PM on Thursday 23 Oct 2014 (Local Time) from EPZG Reporting Station
Drizzle Drizzle  
Wind Chill: 45°   Ceiling: 400
Heat Index: 45°   Visibility: 1.8mi
Dew Point: 43°   Wind: 3mph
Humidity: 93%   Direction: 40°NE
Pressure: 30.21"   Gusts: NA
Location:  52.74°N, 15.23°E
Report Text: EPZG 231600Z 04003KT 360V080 3000 -DZ BR OVC004 07/06 Q1023
Loading
Personal Weather Stations






























Interactive Weather Map
Tropical Storm Tracking
New forecast layout! Learn more

10-Day Weather Forecast

Advertisements
Track Severe Weather on mobile